sensor_id;sensor_type;location;lat;lon;timestamp;pressure;altitude;pressure_sealevel;temperature;humidity
57894;BME280;43710;47.460;19.034;2023-05-19T03:57:17;101149.97;;;14.16;98.73
57894;BME280;43710;47.460;19.034;2023-05-19T04:00:21;101149.97;;;14.16;98.73
57894;BME280;43710;47.460;19.034;2023-05-19T04:03:24;101155.72;;;13.75;100.00
57894;BME280;43710;47.460;19.034;2023-05-19T04:06:27;101160.03;;;13.76;98.31
57894;BME280;43710;47.460;19.034;2023-05-19T04:09:30;101163.75;;;13.80;99.39
57894;BME280;43710;47.460;19.034;2023-05-19T04:12:36;101163.41;;;13.92;98.15
57894;BME280;43710;47.460;19.034;2023-05-19T04:15:38;101172.81;;;13.95;98.11
57894;BME280;43710;47.460;19.034;2023-05-19T04:18:43;101169.59;;;13.93;99.83
57894;BME280;43710;47.460;19.034;2023-05-19T04:21:47;101179.81;;;13.96;100.00
57894;BME280;43710;47.460;19.034;2023-05-19T04:24:49;101176.22;;;14.05;100.00
57894;BME280;43710;47.460;19.034;2023-05-19T04:27:53;101175.13;;;14.06;100.00
57894;BME280;43710;47.460;19.034;2023-05-19T04:30:58;101170.47;;;14.17;97.73
57894;BME280;43710;47.460;19.034;2023-05-19T04:34:01;101177.22;;;14.15;100.00
57894;BME280;43710;47.460;19.034;2023-05-19T04:37:04;101169.88;;;14.20;100.00
57894;BME280;43710;47.460;19.034;2023-05-19T04:40:08;101180.66;;;14.20;99.83
57894;BME280;43710;47.460;19.034;2023-05-19T04:43:12;101184.53;;;14.38;95.82
57894;BME280;43710;47.460;19.034;2023-05-19T04:46:14;101184.75;;;14.42;95.56
57894;BME280;43710;47.460;19.034;2023-05-19T04:49:17;101183.78;;;14.32;94.74
57894;BME280;43710;47.460;19.034;2023-05-19T04:52:20;101188.91;;;14.34;95.25
57894;BME280;43710;47.460;19.034;2023-05-19T04:55:24;101191.59;;;14.34;95.22
57894;BME280;43710;47.460;19.034;2023-05-19T04:58:27;101196.66;;;14.41;95.86
57894;BME280;43710;47.460;19.034;2023-05-19T05:01:29;101191.59;;;14.34;95.31
57894;BME280;43710;47.460;19.034;2023-05-19T05:04:34;101193.75;;;14.32;95.83
57894;BME280;43710;47.460;19.034;2023-05-19T05:07:38;101185.91;;;14.36;98.17
57894;BME280;43710;47.460;19.034;2023-05-19T05:10:40;101205.53;;;14.70;100.00
57894;BME280;43710;47.460;19.034;2023-05-19T05:13:43;101205.56;;;14.89;100.00
57894;BME280;43710;47.460;19.034;2023-05-19T05:16:46;101210.03;;;14.99;100.00
57894;BME280;43710;47.460;19.034;2023-05-19T05:19:49;101193.97;;;14.89;97.95
57894;BME280;43710;47.460;19.034;2023-05-19T05:22:52;101205.00;;;14.92;97.72
57894;BME280;43710;47.460;19.034;2023-05-19T05:25:55;101208.25;;;14.89;93.08
57894;BME280;43710;47.460;19.034;2023-05-19T05:28:58;101213.75;;;14.84;93.12
57894;BME280;43710;47.460;19.034;2023-05-19T05:32:00;101222.16;;;15.01;92.26
57894;BME280;43710;47.460;19.034;2023-05-19T05:35:03;101211.12;;;14.98;94.47
57894;BME280;43710;47.460;19.034;2023-05-19T05:38:06;101212.56;;;15.14;96.90
57894;BME280;43710;47.460;19.034;2023-05-19T05:41:10;101203.06;;;15.17;97.41
57894;BME280;43710;47.460;19.034;2023-05-19T05:44:12;101213.78;;;15.22;96.11
57894;BME280;43710;47.460;19.034;2023-05-19T05:47:15;101212.22;;;15.40;97.92
57894;BME280;43710;47.460;19.034;2023-05-19T05:50:19;101206.72;;;15.64;92.90
57894;BME280;43710;47.460;19.034;2023-05-19T05:53:23;101205.41;;;15.61;92.30
57894;BME280;43710;47.460;19.034;2023-05-19T05:56:26;101206.72;;;15.64;90.47
57894;BME280;43710;47.460;19.034;2023-05-19T05:59:29;101213.09;;;15.73;94.45
57894;BME280;43710;47.460;19.034;2023-05-19T06:02:32;101211.00;;;15.70;93.29
57894;BME280;43710;47.460;19.034;2023-05-19T06:05:34;101211.12;;;15.60;91.50
57894;BME280;43710;47.460;19.034;2023-05-19T06:08:37;101214.69;;;15.55;93.35
57894;BME280;43710;47.460;19.034;2023-05-19T06:11:39;101208.91;;;15.62;92.44
57894;BME280;43710;47.460;19.034;2023-05-19T06:14:43;101220.16;;;15.69;93.76
57894;BME280;43710;47.460;19.034;2023-05-19T06:17:47;101221.13;;;15.78;93.10
57894;BME280;43710;47.460;19.034;2023-05-19T06:20:49;101217.63;;;15.78;94.01
57894;BME280;43710;47.460;19.034;2023-05-19T06:23:52;101215.81;;;15.73;92.60
57894;BME280;43710;47.460;19.034;2023-05-19T06:26:54;101227.31;;;15.79;91.94
57894;BME280;43710;47.460;19.034;2023-05-19T06:29:57;101231.50;;;15.90;92.32
57894;BME280;43710;47.460;19.034;2023-05-19T06:32:59;101224.97;;;15.91;90.36
57894;BME280;43710;47.460;19.034;2023-05-19T06:36:02;101236.16;;;16.03;89.68
57894;BME280;43710;47.460;19.034;2023-05-19T06:39:05;101237.00;;;15.98;88.88
57894;BME280;43710;47.460;19.034;2023-05-19T06:42:07;101251.78;;;16.06;88.78
57894;BME280;43710;47.460;19.034;2023-05-19T06:45:13;101246.00;;;16.13;91.28
57894;BME280;43710;47.460;19.034;2023-05-19T06:48:16;101244.50;;;16.20;90.77
57894;BME280;43710;47.460;19.034;2023-05-19T06:51:18;101247.63;;;16.28;94.03
57894;BME280;43710;47.460;19.034;2023-05-19T06:54:24;101249.66;;;16.36;96.18
57894;BME280;43710;47.460;19.034;2023-05-19T06:57:26;101252.06;;;16.37;89.89
57894;BME280;43710;47.460;19.034;2023-05-19T07:00:30;101251.13;;;16.28;88.25
57894;BME280;43710;47.460;19.034;2023-05-19T07:03:34;101262.34;;;16.35;89.80
57894;BME280;43710;47.460;19.034;2023-05-19T07:06:37;101257.06;;;16.44;87.95
57894;BME280;43710;47.460;19.034;2023-05-19T07:09:40;101253.25;;;16.45;89.07
57894;BME280;43710;47.460;19.034;2023-05-19T07:12:43;101251.69;;;16.58;88.03
57894;BME280;43710;47.460;19.034;2023-05-19T07:15:46;101253.94;;;16.83;90.42
57894;BME280;43710;47.460;19.034;2023-05-19T07:18:51;101253.41;;;16.67;86.37
57894;BME280;43710;47.460;19.034;2023-05-19T07:21:53;101258.72;;;16.73;87.72
57894;BME280;43710;47.460;19.034;2023-05-19T07:24:56;101247.31;;;16.89;98.13
57894;BME280;43710;47.460;19.034;2023-05-19T07:27:59;101236.16;;;17.19;88.11
57894;BME280;43710;47.460;19.034;2023-05-19T07:31:01;101235.06;;;17.20;85.29
57894;BME280;43710;47.460;19.034;2023-05-19T07:34:04;101229.50;;;17.25;85.81
57894;BME280;43710;47.460;19.034;2023-05-19T07:37:06;101233.81;;;17.40;84.02
57894;BME280;43710;47.460;19.034;2023-05-19T07:40:09;101234.03;;;17.29;80.66
57894;BME280;43710;47.460;19.034;2023-05-19T07:43:13;101228.31;;;17.31;81.01
57894;BME280;43710;47.460;19.034;2023-05-19T07:46:15;101231.72;;;17.36;82.97
57894;BME280;43710;47.460;19.034;2023-05-19T07:49:18;101227.41;;;17.58;85.47
57894;BME280;43710;47.460;19.034;2023-05-19T07:52:20;101229.50;;;17.61;81.73
57894;BME280;43710;47.460;19.034;2023-05-19T07:55:23;101225.72;;;17.62;82.37
57894;BME280;43710;47.460;19.034;2023-05-19T07:58:25;101223.56;;;17.73;81.71
57894;BME280;43710;47.460;19.034;2023-05-19T08:01:29;101221.56;;;17.78;79.10
57894;BME280;43710;47.460;19.034;2023-05-19T08:04:31;101218.78;;;17.92;83.41
57894;BME280;43710;47.460;19.034;2023-05-19T08:07:34;101228.00;;;18.14;85.33
57894;BME280;43710;47.460;19.034;2023-05-19T08:10:36;101221.59;;;18.10;79.22
57894;BME280;43710;47.460;19.034;2023-05-19T08:13:38;101218.09;;;18.09;78.28
57894;BME280;43710;47.460;19.034;2023-05-19T08:16:41;101207.59;;;18.16;80.98
57894;BME280;43710;47.460;19.034;2023-05-19T08:19:44;101199.97;;;18.27;80.28
57894;BME280;43710;47.460;19.034;2023-05-19T08:22:47;101206.94;;;18.42;75.92
57894;BME280;43710;47.460;19.034;2023-05-19T08:25:49;101213.69;;;18.53;79.72
57894;BME280;43710;47.460;19.034;2023-05-19T08:28:52;101210.69;;;18.63;79.93
57894;BME280;43710;47.460;19.034;2023-05-19T08:31:54;101203.50;;;18.67;79.31
57894;BME280;43710;47.460;19.034;2023-05-19T08:34:57;101202.19;;;18.56;74.19
57894;BME280;43710;47.460;19.034;2023-05-19T08:37:59;101199.19;;;18.58;77.61
57894;BME280;43710;47.460;19.034;2023-05-19T08:41:02;101196.37;;;18.80;77.24
57894;BME280;43710;47.460;19.034;2023-05-19T08:44:04;101206.63;;;18.83;77.08
57894;BME280;43710;47.460;19.034;2023-05-19T08:47:07;101205.31;;;18.72;79.54
57894;BME280;43710;47.460;19.034;2023-05-19T08:50:27;101206.50;;;18.57;76.04
57894;BME280;43710;47.460;19.034;2023-05-19T08:53:35;101203.16;;;18.60;77.21
57894;BME280;43710;47.460;19.034;2023-05-19T08:56:38;101205.00;;;18.73;73.63
57894;BME280;43710;47.460;19.034;2023-05-19T08:59:42;101197.75;;;18.69;75.62
57894;BME280;43710;47.460;19.034;2023-05-19T09:02:47;101194.72;;;18.70;78.33
57894;BME280;43710;47.460;19.034;2023-05-19T09:06:07;101195.75;;;18.74;76.05
57894;BME280;43710;47.460;19.034;2023-05-19T09:09:10;101194.31;;;18.86;74.71
57894;BME280;43710;47.460;19.034;2023-05-19T09:12:25;101196.72;;;18.87;74.01
57894;BME280;43710;47.460;19.034;2023-05-19T09:15:27;101196.84;;;18.73;72.22
57894;BME280;43710;47.460;19.034;2023-05-19T09:18:30;101200.44;;;18.60;74.90
57894;BME280;43710;47.460;19.034;2023-05-19T09:21:32;101199.19;;;18.58;75.21
57894;BME280;43710;47.460;19.034;2023-05-19T09:24:35;101200.56;;;18.46;72.87
57894;BME280;43710;47.460;19.034;2023-05-19T09:27:38;101202.81;;;18.53;72.72
57894;BME280;43710;47.460;19.034;2023-05-19T09:30:41;101200.56;;;18.46;73.42
57894;BME280;43710;47.460;19.034;2023-05-19T09:33:43;101198.63;;;18.47;73.15
57894;BME280;43710;47.460;19.034;2023-05-19T09:36:47;101195.44;;;18.45;72.77
57894;BME280;43710;47.460;19.034;2023-05-19T09:39:54;101186.97;;;18.38;72.00
57894;BME280;43710;47.460;19.034;2023-05-19T09:42:57;101191.09;;;18.35;76.07
57894;BME280;43710;47.460;19.034;2023-05-19T09:49:08;101187.94;;;18.42;74.68
57894;BME280;43710;47.460;19.034;2023-05-19T09:52:14;101181.38;;;18.43;74.45
57894;BME280;43710;47.460;19.034;2023-05-19T09:55:17;101186.19;;;18.46;72.13
57894;BME280;43710;47.460;19.034;2023-05-19T09:58:24;101181.25;;;18.48;74.60
57894;BME280;43710;47.460;19.034;2023-05-19T10:01:28;101178.06;;;18.54;75.87
57894;BME280;43710;47.460;19.034;2023-05-19T10:04:34;101169.81;;;18.68;73.37
57894;BME280;43710;47.460;19.034;2023-05-19T10:07:38;101168.41;;;18.80;74.08
57894;BME280;43710;47.460;19.034;2023-05-19T10:10:41;101161.06;;;18.80;73.40
57894;BME280;43710;47.460;19.034;2023-05-19T10:13:49;101156.13;;;18.82;70.91
57894;BME280;43710;47.460;19.034;2023-05-19T10:16:53;101153.28;;;18.96;71.58
57894;BME280;43710;47.460;19.034;2023-05-19T10:19:57;101157.44;;;19.02;72.06
57894;BME280;43710;47.460;19.034;2023-05-19T10:23:00;101156.94;;;19.00;72.94
57894;BME280;43710;47.460;19.034;2023-05-19T10:26:04;101157.59;;;19.06;75.58
57894;BME280;43710;47.460;19.034;2023-05-19T10:29:08;101158.87;;;19.08;75.71
57894;BME280;43710;47.460;19.034;2023-05-19T10:32:19;101158.56;;;19.10;72.38
57894;BME280;43710;47.460;19.034;2023-05-19T10:38:41;101151.84;;;19.07;70.34
57894;BME280;43710;47.460;19.034;2023-05-19T10:45:19;101145.75;;;19.36;67.66
57894;BME280;43710;47.460;19.034;2023-05-19T10:48:22;101140.97;;;19.33;68.27
57894;BME280;43710;47.460;19.034;2023-05-19T10:51:32;101137.00;;;19.31;71.87
57894;BME280;43710;47.460;19.034;2023-05-19T10:54:44;101140.19;;;19.41;71.39
57894;BME280;43710;47.460;19.034;2023-05-19T10:57:55;101137.63;;;19.45;69.02
57894;BME280;43710;47.460;19.034;2023-05-19T11:01:01;101136.50;;;19.55;72.39
57894;BME280;43710;47.460;19.034;2023-05-19T11:04:08;101127.03;;;19.52;69.21
57894;BME280;43710;47.460;19.034;2023-05-19T11:07:19;101120.66;;;19.48;67.14
57894;BME280;43710;47.460;19.034;2023-05-19T11:10:23;101120.66;;;19.48;67.25
57894;BME280;43710;47.460;19.034;2023-05-19T11:13:26;101119.19;;;19.59;69.03
57894;BME280;43710;47.460;19.034;2023-05-19T11:16:33;101115.22;;;19.65;67.83
57894;BME280;43710;47.460;19.034;2023-05-19T11:19:36;101114.56;;;19.68;68.62
57894;BME280;43710;47.460;19.034;2023-05-19T11:22:38;101114.38;;;19.82;67.25
57894;BME280;43710;47.460;19.034;2023-05-19T11:25:45;101110.69;;;19.87;67.41
57894;BME280;43710;47.460;19.034;2023-05-19T11:28:48;101115.31;;;19.86;65.32
57894;BME280;43710;47.460;19.034;2023-05-19T11:31:51;101114.50;;;19.86;66.26
57894;BME280;43710;47.460;19.034;2023-05-19T11:34:54;101118.66;;;19.92;66.42
57894;BME280;43710;47.460;19.034;2023-05-19T11:37:58;101114.16;;;19.96;66.69
57894;BME280;43710;47.460;19.034;2023-05-19T11:41:00;101106.78;;;19.97;65.81
57894;BME280;43710;47.460;19.034;2023-05-19T11:44:08;101096.91;;;19.92;64.95
57894;BME280;43710;47.460;19.034;2023-05-19T11:47:12;101102.97;;;19.89;64.50
57894;BME280;43710;47.460;19.034;2023-05-19T11:50:15;101105.50;;;20.03;63.89
57894;BME280;43710;47.460;19.034;2023-05-19T11:53:17;101103.31;;;19.87;65.01
57894;BME280;43710;47.460;19.034;2023-05-19T11:56:22;101104.94;;;19.80;65.73
57894;BME280;43710;47.460;19.034;2023-05-19T11:59:32;101109.13;;;19.77;63.71
57894;BME280;43710;47.460;19.034;2023-05-19T12:02:37;101098.09;;;19.74;65.84
57894;BME280;43710;47.460;19.034;2023-05-19T12:05:43;101101.47;;;19.70;65.23
57894;BME280;43710;47.460;19.034;2023-05-19T12:08:50;101091.37;;;19.71;66.72
57894;BME280;43710;47.460;19.034;2023-05-19T12:11:53;101086.03;;;19.83;67.63
57894;BME280;43710;47.460;19.034;2023-05-19T12:14:56;101080.84;;;19.99;66.19
57894;BME280;43710;47.460;19.034;2023-05-19T12:18:01;101092.47;;;20.17;63.96
57894;BME280;43710;47.460;19.034;2023-05-19T12:21:04;101081.06;;;20.24;64.80
57894;BME280;43710;47.460;19.034;2023-05-19T12:24:07;101076.09;;;20.26;63.32
57894;BME280;43710;47.460;19.034;2023-05-19T12:27:10;101077.87;;;20.22;64.79
57894;BME280;43710;47.460;19.034;2023-05-19T12:30:16;101071.34;;;20.14;64.20
57894;BME280;43710;47.460;19.034;2023-05-19T12:33:18;101066.19;;;20.21;62.84
57894;BME280;43710;47.460;19.034;2023-05-19T12:36:23;101066.59;;;20.32;62.18
57894;BME280;43710;47.460;19.034;2023-05-19T12:39:26;101047.75;;;20.27;61.69
57894;BME280;43710;47.460;19.034;2023-05-19T12:42:29;101043.09;;;20.27;63.46
57894;BME280;43710;47.460;19.034;2023-05-19T12:45:36;101040.81;;;20.29;64.85
57894;BME280;43710;47.460;19.034;2023-05-19T12:48:44;101048.16;;;20.37;65.49
57894;BME280;43710;47.460;19.034;2023-05-19T12:51:52;101044.06;;;20.52;61.55
57894;BME280;43710;47.460;19.034;2023-05-19T12:55:02;101038.91;;;20.59;65.32
57894;BME280;43710;47.460;19.034;2023-05-19T12:58:11;101031.88;;;20.58;64.29
57894;BME280;43710;47.460;19.034;2023-05-19T13:01:16;101043.09;;;20.57;65.97
57894;BME280;43710;47.460;19.034;2023-05-19T13:04:18;101035.50;;;20.62;64.34
57894;BME280;43710;47.460;19.034;2023-05-19T13:07:21;101041.91;;;20.67;62.90
57894;BME280;43710;47.460;19.034;2023-05-19T13:10:24;101040.37;;;20.57;64.08
57894;BME280;43710;47.460;19.034;2023-05-19T13:13:30;101032.88;;;20.45;63.98
57894;BME280;43710;47.460;19.034;2023-05-19T13:16:33;101022.78;;;20.54;63.80
57894;BME280;43710;47.460;19.034;2023-05-19T13:19:35;101015.88;;;20.57;65.34
57894;BME280;43710;47.460;19.034;2023-05-19T13:22:37;101016.78;;;20.61;65.46
57894;BME280;43710;47.460;19.034;2023-05-19T13:25:40;101016.50;;;20.75;64.89
57894;BME280;43710;47.460;19.034;2023-05-19T13:28:43;101021.56;;;20.85;59.21
57894;BME280;43710;47.460;19.034;2023-05-19T13:31:45;101020.75;;;20.84;60.74
57894;BME280;43710;47.460;19.034;2023-05-19T13:34:47;101006.28;;;20.93;63.80
57894;BME280;43710;47.460;19.034;2023-05-19T13:37:50;101009.25;;;21.00;61.65
57894;BME280;43710;47.460;19.034;2023-05-19T13:40:52;100999.97;;;21.13;61.27
57894;BME280;43710;47.460;19.034;2023-05-19T13:43:59;100994.28;;;21.06;63.48
57894;BME280;43710;47.460;19.034;2023-05-19T13:47:02;100995.41;;;21.05;62.18
57894;BME280;43710;47.460;19.034;2023-05-19T13:50:05;101001.62;;;21.05;62.13
57894;BME280;43710;47.460;19.034;2023-05-19T13:53:07;100993.03;;;21.03;62.00
57894;BME280;43710;47.460;19.034;2023-05-19T13:56:09;100992.91;;;21.00;61.78
57894;BME280;43710;47.460;19.034;2023-05-19T13:59:12;100997.03;;;20.85;62.83
57894;BME280;43710;47.460;19.034;2023-05-19T14:02:14;100994.72;;;20.75;65.92
57894;BME280;43710;47.460;19.034;2023-05-19T14:05:17;100988.25;;;20.79;65.36
57894;BME280;43710;47.460;19.034;2023-05-19T14:08:19;100985.53;;;20.79;64.15
57894;BME280;43710;47.460;19.034;2023-05-19T14:11:22;100983.28;;;20.81;62.39
57894;BME280;43710;47.460;19.034;2023-05-19T14:14:24;100981.88;;;20.96;61.44
57894;BME280;43710;47.460;19.034;2023-05-19T14:17:27;100977.53;;;20.95;60.69
57894;BME280;43710;47.460;19.034;2023-05-19T14:20:30;100974.25;;;21.02;62.92
57894;BME280;43710;47.460;19.034;2023-05-19T14:23:32;100974.66;;;21.12;62.98
57894;BME280;43710;47.460;19.034;2023-05-19T14:26:35;100979.69;;;21.23;61.57
57894;BME280;43710;47.460;19.034;2023-05-19T14:29:38;100975.63;;;21.41;60.24
57894;BME280;43710;47.460;19.034;2023-05-19T14:32:40;100974.16;;;21.44;59.68
57894;BME280;43710;47.460;19.034;2023-05-19T14:35:42;100979.03;;;21.38;60.74
57894;BME280;43710;47.460;19.034;2023-05-19T14:38:45;100979.63;;;21.44;59.32
57894;BME280;43710;47.460;19.034;2023-05-19T14:41:47;100974.00;;;21.28;59.20
57894;BME280;43710;47.460;19.034;2023-05-19T14:44:51;100974.91;;;21.20;57.77
57894;BME280;43710;47.460;19.034;2023-05-19T14:47:54;100978.72;;;21.19;58.55
57894;BME280;43710;47.460;19.034;2023-05-19T14:50:56;100962.84;;;21.21;57.60
57894;BME280;43710;47.460;19.034;2023-05-19T14:53:59;100974.47;;;21.30;59.34
57894;BME280;43710;47.460;19.034;2023-05-19T14:57:03;100973.66;;;21.29;58.46
57894;BME280;43710;47.460;19.034;2023-05-19T15:00:06;100970.59;;;21.31;60.37
57894;BME280;43710;47.460;19.034;2023-05-19T15:03:10;100971.50;;;21.23;59.42
57894;BME280;43710;47.460;19.034;2023-05-19T15:06:13;100962.37;;;21.19;58.69
57894;BME280;43710;47.460;19.034;2023-05-19T15:09:15;100968.97;;;21.18;59.47
57894;BME280;43710;47.460;19.034;2023-05-19T15:12:18;100962.25;;;21.15;58.01
57894;BME280;43710;47.460;19.034;2023-05-19T15:15:20;100971.56;;;21.14;58.13
57894;BME280;43710;47.460;19.034;2023-05-19T15:18:22;100962.25;;;21.15;58.42
57894;BME280;43710;47.460;19.034;2023-05-19T15:21:25;100960.66;;;21.14;58.68
57894;BME280;43710;47.460;19.034;2023-05-19T15:24:27;100963.19;;;21.19;56.97
